Time;durP1;ratioP1;P1;durP2;ratioP2;P2;SDS_P1;SDS_P2;PMS_P1;PMS_P2;Temp;Humidity;BMP_temperature;BMP_pressure;BME280_temperature;BME280_humidity;BME280_pressure;Samples;Min_cycle;Max_cycle;Signal;HPM_P1;HPM_P2
2022/04/12 00:00:06;;;;;;;1.63;1.20;;;7.80;98.00;;;;;;5092019;28;20549;-65
2022/04/12 00:02:34;;;;;;;1.20;1.17;;;7.80;98.00;;;;;;5091922;28;20513;-65
2022/04/12 00:05:01;;;;;;;1.40;1.23;;;7.70;98.00;;;;;;5091933;28;20483;-65
2022/04/12 00:07:29;;;;;;;1.40;1.27;;;7.90;98.00;;;;;;5091869;28;20496;-65
2022/04/12 00:09:56;;;;;;;1.40;1.30;;;8.00;98.00;;;;;;5092056;28;20454;-65
2022/04/12 00:12:23;;;;;;;1.30;1.20;;;7.90;98.00;;;;;;5091798;28;20509;-65
2022/04/12 00:14:50;;;;;;;1.63;1.50;;;7.90;98.00;;;;;;5090712;28;20463;-65
2022/04/12 00:20:05;;;;;;;3.00;1.43;;;7.90;98.00;;;;;;5092118;28;20450;-65
2022/04/12 00:22:34;;;;;;;1.20;1.00;;;7.80;98.00;;;;;;5091598;28;20508;-66
2022/04/12 00:25:01;;;;;;;2.20;1.90;;;7.70;98.00;;;;;;5091895;28;20449;-65
2022/04/12 00:27:30;;;;;;;1.40;1.30;;;7.70;98.00;;;;;;5091471;28;20459;-66
2022/04/12 00:29:58;;;;;;;1.50;1.30;;;7.70;98.00;;;;;;5091957;28;20451;-65
2022/04/12 00:32:25;;;;;;;1.20;1.10;;;7.70;98.00;;;;;;5091432;28;20596;-65
2022/04/12 00:34:53;;;;;;;1.70;1.50;;;7.60;98.00;;;;;;5091698;28;20451;-65
2022/04/12 00:37:19;;;;;;;1.20;1.10;;;7.40;98.00;;;;;;5091391;28;21017;-65
2022/04/12 00:39:48;;;;;;;1.20;1.00;;;7.30;98.00;;;;;;5091516;28;20481;-65
2022/04/12 00:42:26;;;;;;;1.30;1.30;;;7.20;98.00;;;;;;5091287;28;20460;-66
2022/04/12 00:44:53;;;;;;;2.43;1.70;;;7.30;98.00;;;;;;5091348;28;20531;-65
2022/04/12 00:47:20;;;;;;;2.00;1.63;;;7.40;98.00;;;;;;5091368;28;20548;-65
2022/04/12 00:49:47;;;;;;;2.07;1.63;;;7.30;98.00;;;;;;5091332;28;20493;-64
2022/04/12 00:52:15;;;;;;;1.30;1.10;;;7.40;98.00;;;;;;5093837;28;20617;-65
2022/04/12 00:54:45;;;;;;;1.20;1.00;;;7.20;98.00;;;;;;5095289;28;20975;-66
2022/04/12 00:57:13;;;;;;;1.20;1.10;;;7.10;98.00;;;;;;5094326;28;20517;-66
2022/04/12 00:59:41;;;;;;;1.50;1.40;;;7.10;98.00;;;;;;5095314;28;20486;-65
2022/04/12 01:02:08;;;;;;;1.37;1.23;;;7.00;98.00;;;;;;5094050;28;20489;-65
2022/04/12 01:04:35;;;;;;;2.90;1.27;;;7.00;98.00;;;;;;5095111;28;20501;-65
2022/04/12 01:07:03;;;;;;;1.20;1.00;;;7.00;98.00;;;;;;5095300;28;20542;-65
2022/04/12 01:09:30;;;;;;;1.20;1.00;;;7.00;98.00;;;;;;5095232;28;20828;-65
2022/04/12 01:11:59;;;;;;;1.20;1.10;;;6.90;98.00;;;;;;5095300;28;20480;-66
2022/04/12 01:14:27;;;;;;;1.20;1.20;;;6.90;98.00;;;;;;5094825;28;20448;-65
2022/04/12 01:16:54;;;;;;;2.40;2.20;;;6.90;98.00;;;;;;5094639;28;20526;-65
2022/04/12 01:19:22;;;;;;;1.20;1.00;;;6.80;98.00;;;;;;5095088;28;20483;-65
2022/04/12 01:21:53;;;;;;;1.20;1.00;;;6.70;98.00;;;;;;5094649;28;20488;-65
2022/04/12 01:24:22;;;;;;;1.67;1.13;;;6.90;98.00;;;;;;5094708;28;20870;-65
2022/04/12 01:26:49;;;;;;;1.70;1.20;;;6.80;98.00;;;;;;5094796;28;20552;-65
2022/04/12 01:29:16;;;;;;;1.50;1.37;;;6.80;98.00;;;;;;5094505;28;20506;-65
2022/04/12 01:31:43;;;;;;;1.40;1.30;;;6.80;98.00;;;;;;5094611;28;20500;-65
2022/04/12 01:34:10;;;;;;;1.23;1.10;;;6.80;98.00;;;;;;5094491;28;20962;-65
2022/04/12 01:36:36;;;;;;;1.20;1.00;;;6.60;98.00;;;;;;5094169;28;20513;-66
2022/04/12 01:39:03;;;;;;;1.33;1.03;;;6.60;98.00;;;;;;5094386;28;20484;-65
2022/04/12 01:41:32;;;;;;;1.20;1.10;;;6.50;98.00;;;;;;5094491;28;20994;-65
2022/04/12 01:43:59;;;;;;;1.40;1.27;;;6.50;98.00;;;;;;5094299;28;20453;-65
2022/04/12 01:46:29;;;;;;;1.33;1.13;;;6.70;98.00;;;;;;5094379;28;20968;-65
2022/04/12 01:48:56;;;;;;;3.80;1.60;;;6.70;98.00;;;;;;5094220;28;20933;-66
2022/04/12 01:51:23;;;;;;;1.30;1.10;;;6.70;98.00;;;;;;5094253;28;20492;-65
2022/04/12 01:53:50;;;;;;;1.50;1.40;;;6.60;98.00;;;;;;5094096;28;20461;-65
2022/04/12 01:56:16;;;;;;;1.30;1.27;;;6.50;98.00;;;;;;5094140;28;20516;-65
2022/04/12 01:58:45;;;;;;;2.10;1.50;;;6.50;98.00;;;;;;5094289;28;20862;-65
2022/04/12 02:01:12;;;;;;;2.60;1.57;;;6.40;98.00;;;;;;5094151;28;20459;-65
2022/04/12 02:03:39;;;;;;;1.57;1.10;;;6.40;98.00;;;;;;5094064;28;20533;-65
2022/04/12 02:06:06;;;;;;;1.20;0.93;;;6.30;98.00;;;;;;5093954;28;20491;-65
2022/04/12 02:08:33;;;;;;;2.10;1.73;;;6.40;98.00;;;;;;5093977;28;20453;-65
2022/04/12 02:11:00;;;;;;;1.57;1.23;;;6.40;98.00;;;;;;5093754;28;20547;-65
2022/04/12 02:13:31;;;;;;;1.20;1.00;;;6.40;98.00;;;;;;5093814;28;20456;-65
2022/04/12 02:16:00;;;;;;;2.07;1.60;;;6.30;98.00;;;;;;5093504;28;20453;-65
2022/04/12 02:18:27;;;;;;;1.20;1.00;;;6.30;98.00;;;;;;5093730;28;20452;-65
2022/04/12 02:20:53;;;;;;;1.20;1.00;;;6.20;98.00;;;;;;5093579;28;20448;-65
2022/04/12 02:23:21;;;;;;;1.70;1.43;;;6.20;98.00;;;;;;5093853;28;20476;-65
2022/04/12 02:25:48;;;;;;;1.97;1.43;;;6.30;98.00;;;;;;5093522;28;20458;-65
2022/04/12 02:28:16;;;;;;;1.80;1.67;;;6.30;98.00;;;;;;5093824;28;20533;-65
2022/04/12 02:30:44;;;;;;;1.30;1.27;;;6.10;98.00;;;;;;5093448;28;20460;-65
2022/04/12 02:33:12;;;;;;;1.20;1.17;;;6.20;98.00;;;;;;5093291;28;20923;-65
2022/04/12 02:35:39;;;;;;;1.50;1.30;;;6.10;98.00;;;;;;5093384;28;20553;-65
2022/04/12 02:38:06;;;;;;;2.27;1.87;;;6.00;98.00;;;;;;5093137;28;20525;-65
2022/04/12 02:40:33;;;;;;;1.40;1.20;;;6.00;98.00;;;;;;5093498;28;20953;-65
2022/04/12 02:43:01;;;;;;;1.30;1.10;;;6.00;98.00;;;;;;5091851;28;20458;-65
2022/04/12 02:45:28;;;;;;;1.20;1.00;;;5.90;98.00;;;;;;5092597;28;21020;-66
2022/04/12 02:47:55;;;;;;;1.60;1.30;;;5.80;98.00;;;;;;5092504;28;20721;-65
2022/04/12 02:50:23;;;;;;;1.20;1.00;;;5.70;98.00;;;;;;5092528;28;20601;-66
2022/04/12 02:52:50;;;;;;;1.47;1.20;;;5.70;98.00;;;;;;5092672;28;21055;-65
2022/04/12 02:55:17;;;;;;;2.50;1.33;;;5.80;98.00;;;;;;5093269;28;20449;-64
2022/04/12 02:57:44;;;;;;;1.60;1.30;;;5.90;98.00;;;;;;5093172;28;20527;-65
2022/04/12 03:00:11;;;;;;;1.20;1.20;;;5.80;98.00;;;;;;5092783;28;20982;-66
2022/04/12 03:02:38;;;;;;;1.20;1.10;;;5.70;98.00;;;;;;5092959;28;20456;-65
2022/04/12 03:05:06;;;;;;;1.33;1.27;;;5.70;98.00;;;;;;5092708;28;20570;-65
2022/04/12 03:07:36;;;;;;;1.30;1.10;;;5.60;98.00;;;;;;5092261;28;20451;-65
2022/04/12 03:10:03;;;;;;;1.73;1.30;;;5.50;98.00;;;;;;5092515;28;20916;-65
2022/04/12 03:12:30;;;;;;;1.50;1.30;;;5.60;98.00;;;;;;5092494;28;20558;-65
2022/04/12 03:14:57;;;;;;;1.67;1.20;;;5.60;98.00;;;;;;5092009;28;20997;-65
2022/04/12 03:17:24;;;;;;;1.20;1.20;;;5.70;98.00;;;;;;5092340;28;20511;-65
2022/04/12 03:19:51;;;;;;;1.97;1.73;;;5.70;98.00;;;;;;5092550;28;20978;-65
2022/04/12 03:22:18;;;;;;;1.87;1.47;;;5.50;98.00;;;;;;5092564;28;20485;-65
2022/04/12 03:24:46;;;;;;;1.47;1.20;;;5.60;98.00;;;;;;5092574;28;20478;-65
2022/04/12 03:27:13;;;;;;;1.77;1.20;;;5.50;98.00;;;;;;5092406;28;20488;-65
2022/04/12 03:29:40;;;;;;;1.37;1.37;;;5.40;98.00;;;;;;5092703;28;20518;-65
2022/04/12 03:32:08;;;;;;;1.30;1.10;;;5.50;98.00;;;;;;5092288;28;20879;-65
2022/04/12 03:34:40;;;;;;;1.30;1.10;;;5.40;98.00;;;;;;5092349;28;20488;-65
2022/04/12 03:37:08;;;;;;;1.20;1.00;;;5.40;98.00;;;;;;5075122;28;20972;-65
2022/04/12 03:39:36;;;;;;;1.77;1.40;;;5.40;98.00;;;;;;5092310;28;20482;-65
2022/04/12 03:42:05;;;;;;;1.40;1.20;;;5.60;98.00;;;;;;5092186;28;20463;-66
2022/04/12 03:44:32;;;;;;;3.10;1.83;;;5.50;98.00;;;;;;5091988;28;20824;-65
2022/04/12 03:46:59;;;;;;;1.20;1.10;;;5.40;98.00;;;;;;5092584;28;20483;-65
2022/04/12 03:49:27;;;;;;;1.20;1.10;;;5.30;98.00;;;;;;5092173;28;20473;-65
2022/04/12 03:51:54;;;;;;;1.73;1.43;;;5.30;98.00;;;;;;5091782;28;20455;-65
2022/04/12 03:54:21;;;;;;;1.47;1.30;;;5.30;98.00;;;;;;5090863;28;20489;-65
2022/04/12 03:56:48;;;;;;;1.47;1.10;;;5.30;98.00;;;;;;5091708;28;20526;-64
2022/04/12 03:59:16;;;;;;;1.50;1.40;;;5.30;98.00;;;;;;5091769;28;20551;-65
2022/04/12 04:01:46;;;;;;;1.20;1.00;;;5.30;98.00;;;;;;5091790;28;20494;-65
2022/04/12 04:04:13;;;;;;;1.83;1.57;;;5.30;98.00;;;;;;5092039;28;20465;-65
2022/04/12 04:06:49;;;;;;;1.40;1.30;;;5.20;98.00;;;;;;5091638;28;20854;-65
2022/04/12 04:09:16;;;;;;;1.20;1.10;;;5.30;98.00;;;;;;5091854;28;20461;-65
2022/04/12 04:11:43;;;;;;;1.97;1.10;;;5.40;98.00;;;;;;5091650;28;20462;-64
2022/04/12 04:14:12;;;;;;;1.30;1.20;;;5.50;98.00;;;;;;5092038;28;20514;-65
2022/04/12 04:16:41;;;;;;;2.00;1.13;;;5.50;98.00;;;;;;5091567;28;20492;-65
2022/04/12 04:19:09;;;;;;;1.90;1.33;;;5.40;98.00;;;;;;5092104;28;20490;-65
2022/04/12 04:21:36;;;;;;;1.60;1.60;;;5.20;98.00;;;;;;5091772;28;20462;-65
2022/04/12 04:24:05;;;;;;;1.20;1.10;;;5.20;98.00;;;;;;5091888;28;20860;-65
2022/04/12 04:26:32;;;;;;;1.57;1.53;;;5.20;98.00;;;;;;5092095;28;20874;-65
2022/04/12 04:29:00;;;;;;;1.20;1.00;;;5.20;98.00;;;;;;5095833;28;20514;-65
2022/04/12 04:31:27;;;;;;;1.20;1.00;;;5.30;98.00;;;;;;5095922;28;20447;-65
2022/04/12 04:33:55;;;;;;;2.27;1.33;;;5.10;98.00;;;;;;5095934;28;20952;-65
2022/04/12 04:36:22;;;;;;;1.33;1.27;;;5.10;98.00;;;;;;5095998;28;20476;-65
2022/04/12 04:38:49;;;;;;;1.30;1.10;;;5.20;98.00;;;;;;5095674;28;20597;-65
2022/04/12 04:41:16;;;;;;;1.30;1.10;;;5.40;98.00;;;;;;5095756;28;20541;-65
2022/04/12 04:43:45;;;;;;;1.20;1.00;;;5.30;98.00;;;;;;5095167;28;20482;-65
2022/04/12 04:46:15;;;;;;;1.30;1.20;;;5.20;98.00;;;;;;5095532;28;20993;-65
2022/04/12 04:48:43;;;;;;;1.50;1.40;;;5.10;98.00;;;;;;5095189;28;20525;-65
2022/04/12 04:51:12;;;;;;;1.20;1.00;;;5.20;98.00;;;;;;5095289;28;20464;-65
2022/04/12 04:53:39;;;;;;;1.37;1.17;;;5.10;98.00;;;;;;5093990;28;20457;-65
2022/04/12 04:56:07;;;;;;;1.43;1.20;;;5.10;98.00;;;;;;5095393;28;20959;-65
2022/04/12 04:58:34;;;;;;;1.20;1.00;;;5.20;98.00;;;;;;5094858;28;20514;-64
2022/04/12 05:01:01;;;;;;;1.20;1.10;;;5.20;98.00;;;;;;5094727;28;20541;-65
2022/04/12 05:03:28;;;;;;;1.20;1.20;;;5.20;98.00;;;;;;5093847;28;20462;-65
2022/04/12 05:05:55;;;;;;;1.93;1.50;;;5.30;98.00;;;;;;5095009;28;20494;-65
2022/04/12 05:08:23;;;;;;;1.20;1.07;;;5.10;98.00;;;;;;5093885;28;20550;-66
2022/04/12 05:10:51;;;;;;;1.37;1.10;;;5.10;98.00;;;;;;5095115;28;20452;-65
2022/04/12 05:13:19;;;;;;;1.97;1.60;;;5.10;98.00;;;;;;5094906;28;20483;-65
2022/04/12 05:15:46;;;;;;;1.20;1.00;;;5.10;98.00;;;;;;5094955;28;20468;-65
2022/04/12 05:18:28;;;;;;;1.60;1.40;;;5.10;98.00;;;;;;5094924;28;20477;-65
2022/04/12 05:20:55;;;;;;;1.63;1.10;;;5.00;98.00;;;;;;5094903;28;20458;-65
2022/04/12 05:23:24;;;;;;;1.20;1.10;;;5.00;98.00;;;;;;5094970;28;20487;-65
2022/04/12 05:25:53;;;;;;;1.20;1.10;;;5.00;98.00;;;;;;5094825;28;20489;-65
2022/04/12 05:28:20;;;;;;;1.30;1.10;;;4.90;98.00;;;;;;5094857;28;20804;-65
2022/04/12 05:30:47;;;;;;;2.50;1.20;;;5.10;98.00;;;;;;5094747;28;20464;-65
2022/04/12 05:33:15;;;;;;;1.20;1.00;;;5.20;98.00;;;;;;5094854;28;20542;-65
2022/04/12 05:35:42;;;;;;;1.53;1.10;;;5.20;98.00;;;;;;5094304;28;20995;-65
2022/04/12 05:38:09;;;;;;;1.30;1.10;;;5.10;98.00;;;;;;5093884;28;20566;-65
2022/04/12 05:40:39;;;;;;;1.20;1.00;;;5.20;98.00;;;;;;5094276;28;20457;-65
2022/04/12 05:43:07;;;;;;;1.20;1.00;;;5.30;98.00;;;;;;5093152;28;20487;-65
2022/04/12 05:45:36;;;;;;;1.43;1.23;;;5.40;98.00;;;;;;5094339;28;20486;-65
2022/04/12 05:48:03;;;;;;;2.27;1.47;;;5.40;98.00;;;;;;5094257;28;20490;-65
2022/04/12 05:50:30;;;;;;;1.40;1.40;;;5.50;98.00;;;;;;5094230;28;20547;-65
2022/04/12 05:52:57;;;;;;;1.20;0.93;;;5.70;98.00;;;;;;5094152;28;20994;-65
2022/04/12 05:55:26;;;;;;;1.40;1.10;;;5.80;98.00;;;;;;5094128;28;20852;-65
2022/04/12 05:57:56;;;;;;;10.73;1.80;;;5.90;98.00;;;;;;5093994;28;20483;-65
2022/04/12 06:00:25;;;;;;;1.30;1.23;;;6.00;98.00;;;;;;5092943;28;20468;-66
2022/04/12 06:02:53;;;;;;;2.17;1.07;;;6.00;98.00;;;;;;5094005;28;20476;-65
2022/04/12 06:05:22;;;;;;;3.57;1.50;;;6.10;98.00;;;;;;5093918;28;20491;-66
2022/04/12 06:07:49;;;;;;;1.20;1.03;;;6.20;98.00;;;;;;5093929;28;20502;-65
2022/04/12 06:10:18;;;;;;;1.80;1.77;;;6.20;98.00;;;;;;5093552;28;20488;-66
2022/04/12 06:12:45;;;;;;;1.30;1.30;;;6.40;98.00;;;;;;5093704;28;20454;-65
2022/04/12 06:15:13;;;;;;;1.40;1.27;;;6.60;98.00;;;;;;5093905;28;20486;-65
2022/04/12 06:17:41;;;;;;;1.30;1.17;;;6.60;98.00;;;;;;5093475;28;20527;-65
2022/04/12 06:20:10;;;;;;;1.30;1.20;;;6.60;98.00;;;;;;5093873;28;20569;-65
2022/04/12 06:22:38;;;;;;;1.63;1.60;;;6.60;98.00;;;;;;5094019;28;20488;-65
2022/04/12 06:25:07;;;;;;;1.30;1.30;;;6.70;98.00;;;;;;5092271;28;20474;-65
2022/04/12 06:27:36;;;;;;;1.50;1.50;;;6.80;98.00;;;;;;5093745;28;20485;-65
2022/04/12 06:30:08;;;;;;;1.60;1.60;;;6.80;98.00;;;;;;5093529;28;20875;-65
2022/04/12 06:32:37;;;;;;;1.20;1.10;;;6.90;98.00;;;;;;5091875;28;20458;-65
2022/04/12 06:35:07;;;;;;;1.20;1.00;;;7.10;98.00;;;;;;5093266;28;20486;-65
2022/04/12 06:37:34;;;;;;;2.20;1.70;;;7.30;98.00;;;;;;5093155;28;20873;-66
2022/04/12 06:40:01;;;;;;;1.20;1.10;;;7.40;98.00;;;;;;5093191;28;20546;-66
2022/04/12 06:42:28;;;;;;;1.30;1.10;;;7.60;98.00;;;;;;5093155;28;20848;-66
2022/04/12 06:44:55;;;;;;;1.70;1.37;;;7.70;98.00;;;;;;5093054;28;20545;-65
2022/04/12 06:47:22;;;;;;;1.73;1.53;;;7.70;98.00;;;;;;5093256;28;20576;-65
2022/04/12 06:49:51;;;;;;;1.70;1.20;;;7.80;98.00;;;;;;5092120;28;20449;-64
2022/04/12 06:52:20;;;;;;;1.77;1.40;;;7.90;98.00;;;;;;5093142;28;20915;-65
2022/04/12 06:54:47;;;;;;;1.47;1.43;;;8.00;98.00;;;;;;5093036;28;20512;-65
2022/04/12 06:57:14;;;;;;;2.43;1.67;;;8.20;98.00;;;;;;5092774;28;20449;-65
2022/04/12 06:59:41;;;;;;;1.30;1.20;;;8.50;98.00;;;;;;5093123;28;20481;-65
2022/04/12 07:02:08;;;;;;;1.73;1.30;;;8.60;98.00;;;;;;5092775;28;20491;-65
2022/04/12 07:04:36;;;;;;;1.63;1.23;;;8.70;98.00;;;;;;5093058;28;20494;-65
2022/04/12 07:07:05;;;;;;;2.57;1.83;;;8.70;98.00;;;;;;5092968;28;20465;-66
2022/04/12 07:09:32;;;;;;;1.40;1.30;;;8.90;98.00;;;;;;5093022;28;20454;-67
2022/04/12 07:12:01;;;;;;;2.23;1.70;;;8.90;98.00;;;;;;5092680;28;20489;-67
2022/04/12 07:14:29;;;;;;;1.70;1.60;;;8.90;98.00;;;;;;5093217;28;20531;-67
2022/04/12 07:16:56;;;;;;;1.60;1.40;;;9.10;98.00;;;;;;5092640;28;20471;-67
2022/04/12 07:19:23;;;;;;;1.43;1.17;;;9.30;98.00;;;;;;5091253;28;20573;-67
2022/04/12 07:21:50;;;;;;;2.03;1.43;;;9.50;98.00;;;;;;5092396;28;20497;-67
2022/04/12 07:24:18;;;;;;;1.40;1.10;;;9.60;98.00;;;;;;5092494;28;20504;-69
2022/04/12 07:26:46;;;;;;;1.20;1.10;;;9.80;98.00;;;;;;5087962;28;20551;-68
2022/04/12 07:29:13;;;;;;;1.50;1.50;;;9.80;98.00;;;;;;5087934;28;20460;-69
2022/04/12 07:31:40;;;;;;;1.20;1.00;;;9.90;98.00;;;;;;5088158;28;20462;-69
2022/04/12 07:34:09;;;;;;;1.77;1.30;;;10.10;98.00;;;;;;5089812;28;20543;-68
2022/04/12 07:36:39;;;;;;;1.77;1.27;;;10.20;98.00;;;;;;5089861;28;20539;-68
2022/04/12 07:39:06;;;;;;;1.57;1.43;;;10.40;98.00;;;;;;5089641;28;20503;-67
2022/04/12 07:41:35;;;;;;;2.13;1.30;;;10.60;98.00;;;;;;5089919;28;20451;-69
2022/04/12 07:44:02;;;;;;;1.40;1.20;;;10.80;98.00;;;;;;5090881;28;20546;-69
2022/04/12 07:46:29;;;;;;;1.77;1.20;;;11.10;98.00;;;;;;5090543;28;20452;-67
2022/04/12 07:48:56;;;;;;;2.60;1.77;;;11.10;98.00;;;;;;5089428;28;20492;-68
2022/04/12 07:51:23;;;;;;;1.53;1.30;;;11.30;98.00;;;;;;5087579;28;20854;-67
2022/04/12 07:53:50;;;;;;;3.40;2.20;;;11.50;98.00;;;;;;5089032;28;20537;-68
2022/04/12 07:56:18;;;;;;;1.80;1.20;;;11.60;98.00;;;;;;5089389;28;20462;-67
2022/04/12 07:58:48;;;;;;;4.00;1.83;;;11.70;98.00;;;;;;5096556;28;20495;-69
2022/04/12 08:01:15;;;;;;;1.20;1.10;;;11.80;98.00;;;;;;5091683;28;20540;-67
2022/04/12 08:03:42;;;;;;;1.87;1.47;;;12.10;98.00;;;;;;5097193;28;20891;-67
2022/04/12 08:06:10;;;;;;;1.77;1.67;;;12.30;98.00;;;;;;5089125;28;20476;-68
2022/04/12 08:08:37;;;;;;;1.40;1.33;;;12.60;98.00;;;;;;5088624;28;20462;-68
2022/04/12 08:11:04;;;;;;;2.90;1.83;;;12.80;98.00;;;;;;5097554;28;20465;-66
2022/04/12 08:13:34;;;;;;;1.33;1.23;;;13.00;98.00;;;;;;5089462;28;20456;-67
2022/04/12 08:16:02;;;;;;;2.37;1.80;;;13.20;98.00;;;;;;5088879;28;20552;-68
2022/04/12 08:18:29;;;;;;;2.00;1.63;;;13.40;98.00;;;;;;5088838;28;20516;-67
2022/04/12 08:20:56;;;;;;;1.87;1.30;;;13.60;97.30;;;;;;5087726;28;20481;-67
2022/04/12 08:23:24;;;;;;;2.20;1.13;;;13.90;95.00;;;;;;5088544;28;20568;-67
2022/04/12 08:25:52;;;;;;;1.20;1.20;;;14.10;94.00;;;;;;5087366;28;20545;-68
2022/04/12 08:28:20;;;;;;;1.40;1.40;;;14.40;94.90;;;;;;5088832;28;21051;-67
2022/04/12 08:30:47;;;;;;;1.87;1.77;;;14.60;96.50;;;;;;5088954;28;20545;-67
2022/04/12 08:33:15;;;;;;;1.57;1.40;;;14.80;96.00;;;;;;5095271;28;20564;-68
2022/04/12 08:35:42;;;;;;;1.50;1.37;;;14.90;95.60;;;;;;5089757;28;20487;-67
2022/04/12 08:38:09;;;;;;;1.93;1.60;;;15.10;91.40;;;;;;5088481;28;20519;-67
2022/04/12 08:40:36;;;;;;;2.97;1.70;;;15.30;89.90;;;;;;5089285;28;20514;-68
2022/04/12 08:43:04;;;;;;;1.57;1.37;;;15.50;89.00;;;;;;5092546;28;20534;-68
2022/04/12 08:45:31;;;;;;;4.87;1.73;;;15.60;88.30;;;;;;5093149;28;20872;-71
2022/04/12 08:47:59;;;;;;;1.30;1.27;;;15.80;87.30;;;;;;5089411;28;20445;-68
2022/04/12 08:50:28;;;;;;;2.00;1.53;;;16.00;88.50;;;;;;5087122;28;20852;-68
2022/04/12 08:52:55;;;;;;;1.30;1.20;;;16.20;88.20;;;;;;5089124;28;20486;-69
2022/04/12 08:55:23;;;;;;;1.30;1.17;;;16.30;87.90;;;;;;5089266;28;21009;-68
2022/04/12 08:57:50;;;;;;;1.40;1.37;;;16.50;85.80;;;;;;5089241;28;20671;-68
2022/04/12 09:00:17;;;;;;;1.50;1.30;;;16.60;87.60;;;;;;5088941;28;20452;-68
2022/04/12 09:02:53;;;;;;;3.87;1.27;;;16.70;87.30;;;;;;5088801;28;20957;-67
2022/04/12 09:05:22;;;;;;;2.10;1.57;;;16.70;87.00;;;;;;5088779;28;20532;-70
2022/04/12 09:07:50;;;;;;;1.50;1.40;;;16.90;85.10;;;;;;5088513;28;20485;-70
2022/04/12 09:10:19;;;;;;;3.10;2.13;;;17.10;83.70;;;;;;5089262;28;20546;-67
2022/04/12 09:12:46;;;;;;;1.80;1.50;;;17.30;82.20;;;;;;5089974;28;20467;-69
2022/04/12 09:15:15;;;;;;;1.60;1.43;;;17.50;84.60;;;;;;5092367;28;20539;-68
2022/04/12 09:17:44;;;;;;;1.80;1.47;;;17.70;83.20;;;;;;5092235;28;20476;-67
2022/04/12 09:20:13;;;;;;;2.13;1.83;;;17.80;82.20;;;;;;5091951;28;20495;-68
2022/04/12 09:22:41;;;;;;;2.53;1.80;;;17.90;82.60;;;;;;5092061;28;20447;-68
2022/04/12 09:25:11;;;;;;;1.47;1.40;;;18.10;80.30;;;;;;5092553;28;20472;-67
2022/04/12 09:27:40;;;;;;;1.40;1.40;;;18.30;78.80;;;;;;5092287;28;20502;-67
2022/04/12 09:30:09;;;;;;;1.90;1.50;;;18.50;79.60;;;;;;5092112;28;20471;-67
2022/04/12 09:32:37;;;;;;;1.70;1.50;;;18.70;78.10;;;;;;5091879;28;20990;-67
2022/04/12 09:35:06;;;;;;;1.50;1.30;;;18.80;76.60;;;;;;5092034;28;20989;-68
2022/04/12 09:37:34;;;;;;;2.10;1.50;;;18.80;76.00;;;;;;5091813;28;20498;-68
2022/04/12 09:40:07;;;;;;;2.30;1.63;;;18.90;77.00;;;;;;5091796;28;20583;-68
2022/04/12 09:42:44;;;;;;;3.13;2.20;;;19.00;75.00;;;;;;5091607;28;20460;-67
2022/04/12 09:45:13;;;;;;;1.50;1.40;;;19.00;74.00;;;;;;5092171;28;20471;-68
2022/04/12 09:47:40;;;;;;;1.27;1.27;;;19.00;74.20;;;;;;5091926;28;20547;-67
2022/04/12 09:50:10;;;;;;;1.60;1.57;;;19.10;74.60;;;;;;5089602;28;20456;-68
2022/04/12 09:52:37;;;;;;;1.93;1.43;;;19.20;75.20;;;;;;5091540;28;20463;-68
2022/04/12 09:55:06;;;;;;;1.90;1.33;;;19.40;74.90;;;;;;5091585;28;20543;-68
2022/04/12 09:57:34;;;;;;;2.30;1.67;;;19.70;76.30;;;;;;5091611;28;20491;-67
2022/04/12 10:00:02;;;;;;;1.27;1.23;;;20.00;76.40;;;;;;5091484;28;20535;-67
2022/04/12 10:02:29;;;;;;;1.67;1.60;;;20.20;75.60;;;;;;5091136;28;20506;-67
2022/04/12 10:04:57;;;;;;;1.77;1.27;;;20.40;74.50;;;;;;5091108;28;20572;-67
2022/04/12 10:07:27;;;;;;;1.63;1.30;;;20.60;74.30;;;;;;5091052;28;20539;-67
2022/04/12 10:09:54;;;;;;;1.53;1.40;;;20.70;73.10;;;;;;5090617;28;20509;-68
2022/04/12 10:12:22;;;;;;;1.30;1.10;;;20.80;72.50;;;;;;5093151;28;20447;-68
2022/04/12 10:14:49;;;;;;;1.40;1.30;;;20.90;70.00;;;;;;5087919;28;21234;-68
2022/04/12 10:17:20;;;;;;;2.00;1.60;;;21.20;72.90;;;;;;5090853;28;20491;-67
2022/04/12 10:19:48;;;;;;;1.30;1.20;;;21.40;71.90;;;;;;5092025;28;20557;-68
2022/04/12 10:22:16;;;;;;;1.70;1.50;;;21.60;69.80;;;;;;5099644;28;20539;-68
2022/04/12 10:24:43;;;;;;;1.70;1.40;;;21.80;68.80;;;;;;5091010;28;20539;-67
2022/04/12 10:27:16;;;;;;;1.47;1.30;;;21.90;66.60;;;;;;5090761;28;20508;-68
2022/04/12 10:30:21;;;;;;;1.90;1.40;;;22.00;64.80;;;;;;5090982;28;20464;-69
2022/04/12 10:33:00;;;;;;;1.50;1.33;;;22.10;67.60;;;;;;5083327;28;20464;-67
2022/04/12 10:35:27;;;;;;;1.83;1.40;;;22.20;67.40;;;;;;5090884;28;21027;-68
2022/04/12 10:37:56;;;;;;;1.97;1.40;;;22.20;68.00;;;;;;5090738;28;20588;-68
2022/04/12 10:40:25;;;;;;;1.37;1.30;;;22.20;66.40;;;;;;5090516;28;20599;-67
2022/04/12 10:42:54;;;;;;;1.70;1.37;;;22.30;67.30;;;;;;5090822;28;20631;-68
2022/04/12 10:45:30;;;;;;;1.67;1.30;;;22.30;66.50;;;;;;5090672;28;20878;-67
2022/04/12 10:48:00;;;;;;;1.40;1.37;;;22.50;65.80;;;;;;5090813;28;20566;-67
2022/04/12 10:50:28;;;;;;;2.30;1.63;;;22.70;66.60;;;;;;5088571;28;20889;-67
2022/04/12 10:52:55;;;;;;;1.70;1.27;;;22.90;65.70;;;;;;5090541;28;20543;-67
2022/04/12 10:55:25;;;;;;;1.50;1.30;;;23.10;66.80;;;;;;5090476;28;20538;-67
2022/04/12 10:57:53;;;;;;;2.30;1.47;;;23.20;67.30;;;;;;5090100;28;20541;-68
2022/04/12 11:00:22;;;;;;;2.90;1.53;;;23.40;64.10;;;;;;5090249;28;21001;-67
2022/04/12 11:02:54;;;;;;;1.73;1.30;;;23.60;64.00;;;;;;5090115;28;20895;-67
2022/04/12 11:06:00;;;;;;;1.87;1.40;;;23.80;63.80;;;;;;5089879;28;20553;-67
2022/04/12 11:08:50;;;;;;;1.40;1.20;;;24.00;64.80;;;;;;5081926;28;20485;-68
2022/04/12 11:11:22;;;;;;;2.00;1.40;;;24.20;62.60;;;;;;5089194;28;20529;-67
2022/04/12 11:13:50;;;;;;;1.37;1.23;;;24.40;65.00;;;;;;5090045;28;20455;-67
2022/04/12 11:16:25;;;;;;;1.80;1.40;;;24.60;63.00;;;;;;5089744;28;20491;-67
2022/04/12 11:18:53;;;;;;;2.37;1.70;;;24.80;64.10;;;;;;5089874;28;20498;-68
2022/04/12 11:21:22;;;;;;;2.13;1.67;;;24.90;61.90;;;;;;5090033;28;20468;-68
2022/04/12 11:23:57;;;;;;;3.00;1.67;;;24.90;62.10;;;;;;5088144;28;20440;-68
2022/04/12 11:26:40;;;;;;;2.47;1.70;;;24.90;60.60;;;;;;5088990;28;20499;-68
2022/04/12 11:29:09;;;;;;;1.90;1.43;;;25.00;62.10;;;;;;5089849;28;20460;-68
2022/04/12 11:31:43;;;;;;;1.50;1.47;;;25.20;60.70;;;;;;5089575;28;20448;-69
2022/04/12 11:34:11;;;;;;;1.83;1.30;;;25.50;60.60;;;;;;5089880;28;20543;-67
2022/04/12 11:36:39;;;;;;;2.30;1.60;;;25.60;62.20;;;;;;5090043;28;20451;-67
2022/04/12 11:39:08;;;;;;;1.70;1.20;;;25.70;61.70;;;;;;5091956;28;20498;-68
2022/04/12 11:41:35;;;;;;;1.90;1.30;;;25.90;60.40;;;;;;5092608;28;20483;-67
2022/04/12 11:44:03;;;;;;;1.90;1.47;;;26.00;60.90;;;;;;5092194;28;20586;-68
2022/04/12 11:46:31;;;;;;;2.33;1.40;;;26.00;58.20;;;;;;5092242;28;20492;-68
2022/04/12 11:49:05;;;;;;;1.43;1.40;;;25.80;58.40;;;;;;5091912;28;20455;-67
2022/04/12 11:51:37;;;;;;;1.60;1.60;;;25.60;59.10;;;;;;5091844;28;20985;-68
2022/04/12 11:54:25;;;;;;;1.80;1.53;;;25.40;58.20;;;;;;5091738;28;20488;-67
2022/04/12 11:57:00;;;;;;;2.00;1.47;;;25.20;61.80;;;;;;5092252;28;20804;-68
2022/04/12 11:59:27;;;;;;;1.47;1.37;;;24.90;62.40;;;;;;5091845;28;20483;-67
2022/04/12 12:01:59;;;;;;;2.00;1.40;;;24.90;60.50;;;;;;5091957;28;20463;-68
2022/04/12 12:04:29;;;;;;;1.50;1.40;;;25.00;61.30;;;;;;5091889;28;20964;-67
2022/04/12 12:07:01;;;;;;;1.60;1.47;;;25.10;61.20;;;;;;5091744;28;20444;-68
2022/04/12 12:09:30;;;;;;;1.53;1.40;;;25.10;59.70;;;;;;5091960;28;20946;-68
2022/04/12 12:12:02;;;;;;;2.20;2.00;;;25.20;60.50;;;;;;5091834;28;20503;-68
2022/04/12 12:14:30;;;;;;;1.70;1.30;;;25.20;61.20;;;;;;5091750;28;20880;-67
2022/04/12 12:17:18;;;;;;;1.70;1.30;;;25.20;61.90;;;;;;5091578;28;20513;-67
2022/04/12 12:19:46;;;;;;;1.60;1.23;;;25.20;61.10;;;;;;5091372;28;20495;-66
2022/04/12 12:22:14;;;;;;;1.80;1.50;;;25.10;59.50;;;;;;5091970;28;20535;-67
2022/04/12 12:24:53;;;;;;;1.30;1.30;;;25.00;59.90;;;;;;5091643;28;20453;-67
2022/04/12 12:27:27;;;;;;;1.50;1.30;;;24.90;59.70;;;;;;5091877;28;20534;-67
2022/04/12 12:30:00;;;;;;;2.10;1.50;;;24.80;62.60;;;;;;5091845;28;20459;-67
2022/04/12 12:32:33;;;;;;;1.53;1.30;;;24.70;60.90;;;;;;5090618;28;20464;-67
2022/04/12 12:35:06;;;;;;;1.80;1.53;;;24.60;61.20;;;;;;5091887;28;20487;-67
2022/04/12 12:37:33;;;;;;;1.50;1.40;;;24.70;61.50;;;;;;5091999;28;20452;-68
2022/04/12 12:40:04;;;;;;;1.40;1.30;;;24.60;62.00;;;;;;5091708;28;20556;-68
2022/04/12 12:42:38;;;;;;;1.40;1.30;;;24.60;61.90;;;;;;5091807;28;20455;-67
2022/04/12 12:45:12;;;;;;;1.60;1.37;;;24.70;61.70;;;;;;5091451;28;20476;-67
2022/04/12 12:47:41;;;;;;;2.60;1.50;;;24.70;61.00;;;;;;5092907;28;20542;-67
2022/04/12 12:50:10;;;;;;;1.60;1.33;;;24.60;61.50;;;;;;5095554;28;20484;-67
2022/04/12 12:52:37;;;;;;;1.40;1.40;;;24.60;61.10;;;;;;5094048;28;20444;-67
2022/04/12 12:55:07;;;;;;;1.90;1.50;;;24.60;62.30;;;;;;5095598;28;20494;-67
2022/04/12 12:57:39;;;;;;;1.40;1.30;;;24.60;62.50;;;;;;5095269;28;20995;-67
2022/04/12 13:00:10;;;;;;;1.63;1.40;;;24.60;62.50;;;;;;5095198;28;21100;-67
2022/04/12 13:02:38;;;;;;;1.67;1.50;;;24.50;63.20;;;;;;5094898;28;20518;-67